Time,TemperatureF,DewpointF,PressureIn,WindDirection,WindDirectionDegrees,WindSpeedMPH,WindSpeedGustMPH,Humidity,HourlyPrecipIn,Conditions,Clouds,dailyrainin,SolarRadiationWatts/m^2,SoftwareType,DateUTC
2013-05-13 00:32:00,69.0,29.0,-100.00,West,264,13.0,21.0,22,0.00,,,0.00,0.000000,,2013-05-13 07:32:00,
2013-05-13 00:42:00,69.0,29.0,-100.00,West,264,13.0,21.0,22,0.00,,,0.00,0.000000,,2013-05-13 07:42:00,
2013-05-13 01:21:00,68.0,34.0,-100.00,West,266,10.0,21.0,28,0.00,,,0.00,0.000000,,2013-05-13 08:21:00,
2013-05-13 01:32:00,68.0,34.0,-100.00,West,266,10.0,21.0,28,0.00,,,0.00,0.000000,,2013-05-13 08:32:00,
2013-05-13 01:42:00,68.0,34.0,-100.00,West,266,10.0,21.0,28,0.00,,,0.00,0.000000,,2013-05-13 08:42:00,
2013-05-13 01:52:00,68.0,34.0,-100.00,West,266,10.0,21.0,28,0.00,,,0.00,0.000000,,2013-05-13 08:52:00,
2013-05-13 02:01:00,68.0,34.0,-100.00,West,266,10.0,21.0,28,0.00,,,0.00,0.000000,,2013-05-13 09:01:00,
2013-05-13 02:02:00,69.0,32.0,-100.00,West,269,11.0,19.0,25,0.00,,,0.00,0.000000,,2013-05-13 09:02:00,
2013-05-13 02:33:00,69.0,32.0,-100.00,West,269,11.0,19.0,25,0.00,,,0.00,0.000000,,2013-05-13 09:33:00,
2013-05-13 02:42:00,69.0,32.0,-100.00,West,269,11.0,19.0,25,0.00,,,0.00,0.000000,,2013-05-13 09:42:00,
2013-05-13 02:52:00,69.0,32.0,-100.00,West,269,11.0,19.0,25,0.00,,,0.00,0.000000,,2013-05-13 09:52:00,
2013-05-13 03:22:00,67.0,31.0,-100.00,West,266,10.0,17.0,26,0.00,,,0.00,0.000000,,2013-05-13 10:22:00,
2013-05-13 03:33:00,67.0,31.0,-100.00,West,266,10.0,17.0,26,0.00,,,0.00,0.000000,,2013-05-13 10:33:00,
2013-05-13 03:42:00,67.0,31.0,-100.00,West,266,10.0,17.0,26,0.00,,,0.00,0.000000,,2013-05-13 10:42:00,
2013-05-13 03:52:00,67.0,31.0,-100.00,West,266,10.0,17.0,26,0.00,,,0.00,0.000000,,2013-05-13 10:52:00,
2013-05-13 04:22:00,68.0,25.0,-100.00,West,271,9.0,19.0,20,-99.99,,,0.00,0.000000,,2013-05-13 11:22:00,
2013-05-13 04:32:00,68.0,25.0,-100.00,West,271,9.0,19.0,20,-99.99,,,0.00,0.000000,,2013-05-13 11:32:00,
2013-05-13 04:42:00,68.0,25.0,-100.00,West,271,9.0,19.0,20,-99.99,,,0.00,0.000000,,2013-05-13 11:42:00,
2013-05-13 04:52:00,68.0,25.0,-100.00,West,271,9.0,19.0,20,-99.99,,,0.00,0.000000,,2013-05-13 11:52:00,
2013-05-13 05:32:00,67.0,25.0,-100.00,West,265,11.0,18.0,20,-99.99,,,0.00,0.000000,,2013-05-13 12:32:00,
2013-05-13 05:42:00,67.0,25.0,-100.00,West,265,11.0,18.0,20,-99.99,,,0.00,0.000000,,2013-05-13 12:42:00,
2013-05-13 05:52:00,67.0,25.0,-100.00,West,265,11.0,18.0,20,-99.99,,,0.00,0.000000,,2013-05-13 12:52:00,
2013-05-13 06:32:00,67.0,23.0,-100.00,West,273,10.0,19.0,19,-99.99,,,-99.99,1.000000,,2013-05-13 13:32:00,
2013-05-13 06:42:00,67.0,23.0,-100.00,West,273,10.0,19.0,19,-99.99,,,-99.99,1.000000,,2013-05-13 13:42:00,
2013-05-13 08:32:00,75.0,17.0,-100.00,WNW,302,7.0,15.0,11,-99.99,,,0.00,245.000000,,2013-05-13 15:32:00,
2013-05-13 09:22:00,75.0,26.0,-100.00,West,281,9.0,16.0,16,-99.99,,,-99.99,453.000000,,2013-05-13 16:22:00,
2013-05-13 09:33:00,75.0,26.0,-100.00,West,281,9.0,16.0,16,-99.99,,,-99.99,453.000000,,2013-05-13 16:33:00,
2013-05-13 10:32:00,76.0,32.0,-100.00,West,272,9.0,20.0,20,-99.99,,,0.00,647.000000,,2013-05-13 17:32:00,
2013-05-13 10:42:00,76.0,32.0,-100.00,West,272,9.0,20.0,20,-99.99,,,0.00,647.000000,,2013-05-13 17:42:00,
2013-05-13 12:32:00,83.0,47.0,-100.00,ESE,114,4.0,10.0,28,-99.99,,,0.00,931.000000,,2013-05-13 19:32:00,
2013-05-13 13:23:00,83.0,45.0,-100.00,West,259,5.0,11.0,26,-99.99,,,0.00,996.000000,,2013-05-13 20:23:00,
2013-05-13 13:34:00,83.0,45.0,-100.00,West,259,5.0,11.0,26,-99.99,,,0.00,996.000000,,2013-05-13 20:34:00,
2013-05-13 13:44:00,83.0,45.0,-100.00,West,259,5.0,11.0,26,-99.99,,,0.00,996.000000,,2013-05-13 20:44:00,
2013-05-13 14:02:00,84.0,41.0,-100.00,West,266,7.0,14.0,22,-99.99,,,0.00,1009.000000,,2013-05-13 21:02:00,
2013-05-13 14:23:00,84.0,41.0,-100.00,West,266,7.0,14.0,22,-99.99,,,0.00,1009.000000,,2013-05-13 21:23:00,
2013-05-13 14:33:00,84.0,41.0,-100.00,West,266,7.0,14.0,22,-99.99,,,0.00,1009.000000,,2013-05-13 21:33:00,
2013-05-13 14:43:00,84.0,41.0,-100.00,West,266,7.0,14.0,22,-99.99,,,0.00,1009.000000,,2013-05-13 21:43:00,
2013-05-13 14:53:00,84.0,41.0,-100.00,West,266,7.0,14.0,22,-99.99,,,0.00,1009.000000,,2013-05-13 21:53:00,
2013-05-13 15:32:00,84.0,48.0,-100.00,WSW,257,9.0,15.0,29,0.00,,,0.00,956.000000,,2013-05-13 22:32:00,
2013-05-13 15:43:00,84.0,48.0,-100.00,WSW,257,9.0,15.0,29,0.00,,,0.00,956.000000,,2013-05-13 22:43:00,
2013-05-13 15:52:00,84.0,48.0,-100.00,WSW,257,9.0,15.0,29,0.00,,,0.00,956.000000,,2013-05-13 22:52:00,
2013-05-13 16:01:00,84.0,48.0,-100.00,WSW,257,9.0,15.0,29,0.00,,,0.00,956.000000,,2013-05-13 23:01:00,
2013-05-13 16:02:00,84.0,47.0,-100.00,West,263,7.0,15.0,28,0.00,,,0.00,846.000000,,2013-05-13 23:02:00,
2013-05-13 16:23:00,84.0,47.0,-100.00,West,263,7.0,15.0,28,0.00,,,0.00,846.000000,,2013-05-13 23:23:00,
2013-05-13 16:34:00,84.0,47.0,-100.00,West,263,7.0,15.0,28,0.00,,,0.00,846.000000,,2013-05-13 23:34:00,
2013-05-13 16:42:00,84.0,47.0,-100.00,West,263,7.0,15.0,28,0.00,,,0.00,846.000000,,2013-05-13 23:42:00,
2013-05-13 16:54:00,84.0,47.0,-100.00,West,263,7.0,15.0,28,0.00,,,0.00,846.000000,,2013-05-13 23:54:00,
2013-05-13 17:22:00,81.0,52.0,-100.00,West,261,9.0,16.0,36,0.00,,,-99.99,691.000000,,2013-05-14 00:22:00,
2013-05-13 17:32:00,81.0,52.0,-100.00,West,261,9.0,16.0,36,0.00,,,-99.99,691.000000,,2013-05-14 00:32:00,
2013-05-13 17:42:00,81.0,52.0,-100.00,West,261,9.0,16.0,36,0.00,,,-99.99,691.000000,,2013-05-14 00:42:00,
2013-05-13 17:51:00,81.0,52.0,-100.00,West,261,9.0,16.0,36,0.00,,,-99.99,691.000000,,2013-05-14 00:51:00,
2013-05-13 18:01:00,81.0,52.0,-100.00,West,261,9.0,16.0,36,0.00,,,-99.99,691.000000,,2013-05-14 01:01:00,
2013-05-13 18:32:00,77.0,51.0,-100.00,West,266,9.0,18.0,41,0.00,,,0.00,502.000000,,2013-05-14 01:32:00,
2013-05-13 18:43:00,77.0,51.0,-100.00,West,266,9.0,18.0,41,0.00,,,0.00,502.000000,,2013-05-14 01:43:00,
2013-05-13 18:53:00,77.0,51.0,-100.00,West,266,9.0,18.0,41,0.00,,,0.00,502.000000,,2013-05-14 01:53:00,
2013-05-13 19:22:00,73.0,51.0,-100.00,West,265,11.0,22.0,46,0.00,,,0.00,294.000000,,2013-05-14 02:22:00,
2013-05-13 19:32:00,73.0,51.0,-100.00,West,265,11.0,22.0,46,0.00,,,0.00,294.000000,,2013-05-14 02:32:00,
2013-05-13 19:42:00,73.0,51.0,-100.00,West,265,11.0,22.0,46,0.00,,,0.00,294.000000,,2013-05-14 02:42:00,
2013-05-13 19:52:00,73.0,51.0,-100.00,West,265,11.0,22.0,46,0.00,,,0.00,294.000000,,2013-05-14 02:52:00,
2013-05-13 20:01:00,73.0,51.0,-100.00,West,265,11.0,22.0,46,0.00,,,0.00,294.000000,,2013-05-14 03:01:00,
2013-05-13 20:02:00,70.0,48.0,-100.00,West,270,13.0,20.0,46,0.00,,,0.00,91.000000,,2013-05-14 03:02:00,
2013-05-13 20:21:00,70.0,48.0,-100.00,West,270,13.0,20.0,46,0.00,,,0.00,91.000000,,2013-05-14 03:21:00,
2013-05-13 20:33:00,70.0,48.0,-100.00,West,270,13.0,20.0,46,0.00,,,0.00,91.000000,,2013-05-14 03:33:00,
2013-05-13 20:42:00,70.0,48.0,-100.00,West,270,13.0,20.0,46,0.00,,,0.00,91.000000,,2013-05-14 03:42:00,
2013-05-13 20:53:00,70.0,48.0,-100.00,West,270,13.0,20.0,46,0.00,,,0.00,91.000000,,2013-05-14 03:53:00,
2013-05-13 21:32:00,69.0,46.0,-100.00,West,272,14.0,23.0,44,0.00,,,0.00,1.000000,,2013-05-14 04:32:00,
2013-05-13 21:43:00,69.0,46.0,-100.00,West,272,14.0,23.0,44,0.00,,,0.00,1.000000,,2013-05-14 04:43:00,
2013-05-13 21:53:00,69.0,46.0,-100.00,West,272,14.0,23.0,44,0.00,,,0.00,1.000000,,2013-05-14 04:53:00,
2013-05-13 22:01:00,69.0,46.0,-100.00,West,272,14.0,23.0,44,0.00,,,0.00,1.000000,,2013-05-14 05:01:00,
2013-05-13 22:22:00,67.0,48.0,-100.00,West,277,18.0,25.0,51,0.00,,,0.00,0.000000,,2013-05-14 05:22:00,
2013-05-13 22:32:00,67.0,48.0,-100.00,West,277,18.0,25.0,51,0.00,,,0.00,0.000000,,2013-05-14 05:32:00,
2013-05-13 23:32:00,67.0,47.0,-100.00,West,278,19.0,28.0,48,-99.99,,,0.00,0.000000,,2013-05-14 06:32:00,
2013-05-13 23:42:00,67.0,47.0,-100.00,West,278,19.0,28.0,48,-99.99,,,0.00,0.000000,,2013-05-14 06:42:00,
2013-05-13 23:52:00,67.0,47.0,-100.00,West,278,19.0,28.0,48,-99.99,,,0.00,0.000000,,2013-05-14 06:52:00,